createdAt,value
2023-05-24T00:00:43.199Z,8.48
2023-05-24T00:01:42.823Z,8.46
2023-05-24T00:02:42.919Z,8.46
2023-05-24T00:03:42.970Z,8.48
2023-05-24T00:04:42.800Z,8.41
2023-05-24T00:05:42.877Z,8.38
2023-05-24T00:06:42.776Z,8.36
2023-05-24T00:07:43.600Z,8.33
2023-05-24T00:08:43.650Z,8.44
2023-05-24T00:09:42.903Z,8.42
2023-05-24T00:10:42.936Z,8.44
2023-05-24T00:11:42.733Z,8.48
2023-05-24T00:12:42.749Z,8.48
2023-05-24T00:13:42.847Z,8.49
2023-05-24T00:14:42.828Z,8.44
2023-05-24T00:15:43.615Z,8.48
2023-05-24T00:16:43.595Z,8.48
2023-05-24T00:17:42.788Z,8.45
2023-05-24T00:18:42.672Z,8.38
2023-05-24T00:19:42.662Z,8.45
2023-05-24T00:21:33.728Z,8.45
2023-05-24T00:22:33.711Z,8.49
2023-05-24T00:23:33.726Z,8.52
2023-05-24T00:24:35.003Z,8.55
2023-05-24T00:25:34.772Z,8.60
2023-05-24T00:26:34.770Z,8.55
2023-05-24T00:27:34.761Z,8.52
2023-05-24T00:28:34.774Z,8.52
2023-05-24T00:29:34.741Z,8.53
2023-05-24T00:30:34.736Z,8.55
2023-05-24T00:31:34.766Z,8.61
2023-05-24T00:32:34.781Z,8.60
2023-05-24T00:33:34.745Z,8.67
2023-05-24T00:34:34.725Z,8.66
2023-05-24T00:35:34.713Z,8.73
2023-05-24T00:36:34.717Z,8.69
2023-05-24T00:37:34.699Z,8.67
2023-05-24T00:38:34.718Z,8.71
2023-05-24T00:39:34.661Z,8.69
2023-05-24T00:40:34.666Z,8.66
2023-05-24T00:41:34.653Z,8.69
2023-05-24T00:42:34.649Z,8.60
2023-05-24T00:43:34.966Z,8.64
2023-05-24T00:44:34.640Z,8.67
2023-05-24T00:45:34.641Z,8.69
2023-05-24T00:46:34.742Z,8.73
2023-05-24T00:47:34.646Z,8.69
2023-05-24T00:48:34.599Z,8.74
2023-05-24T00:49:34.602Z,8.73
2023-05-24T00:50:34.588Z,8.64
2023-05-24T00:51:34.564Z,8.60
2023-05-24T00:52:34.566Z,8.69
2023-05-24T00:53:34.561Z,8.58
2023-05-24T00:54:34.555Z,8.55
2023-05-24T00:55:34.597Z,8.60
2023-05-24T00:56:34.555Z,8.63
2023-05-24T00:57:34.519Z,8.53
2023-05-24T00:58:34.535Z,8.48
2023-05-24T00:59:34.508Z,8.48
2023-05-24T01:00:34.501Z,8.51
2023-05-24T01:01:34.523Z,8.46
2023-05-24T01:02:34.539Z,8.48
2023-05-24T01:03:34.582Z,8.46
2023-05-24T01:04:34.465Z,8.42
2023-05-24T01:05:35.445Z,8.48
2023-05-24T01:06:34.453Z,8.44
2023-05-24T01:07:34.436Z,8.46
2023-05-24T01:08:35.319Z,8.33
2023-05-24T01:09:34.579Z,8.44
2023-05-24T01:10:34.478Z,8.31
2023-05-24T01:11:34.472Z,8.30
2023-05-24T01:12:35.065Z,8.36
2023-05-24T01:13:36.314Z,8.31
2023-05-24T01:14:35.349Z,8.31
2023-05-24T01:15:35.018Z,8.30
2023-05-24T01:16:35.068Z,8.36
2023-05-24T01:17:35.386Z,8.26
2023-05-24T01:18:34.372Z,8.31
2023-05-24T01:19:34.365Z,8.24
2023-05-24T01:20:34.625Z,8.16
2023-05-24T01:21:34.897Z,8.19
2023-05-24T01:22:34.396Z,8.15
2023-05-24T01:23:35.319Z,8.18
2023-05-24T01:24:36.819Z,8.15
2023-05-24T01:25:34.359Z,8.10
2023-05-24T01:26:34.335Z,8.08
2023-05-24T01:27:34.309Z,8.16
2023-05-24T01:28:34.278Z,8.08
2023-05-24T01:29:34.270Z,8.10
2023-05-24T01:30:34.280Z,8.10
2023-05-24T01:31:34.284Z,8.00
2023-05-24T01:32:34.310Z,7.98
2023-05-24T01:33:34.453Z,8.06
2023-05-24T01:34:34.303Z,8.03
2023-05-24T01:35:34.235Z,7.87
2023-05-24T01:36:34.256Z,7.79
2023-05-24T01:37:34.209Z,7.95
2023-05-24T01:38:34.223Z,7.88
2023-05-24T01:39:34.278Z,7.73
2023-05-24T01:40:34.207Z,7.82
2023-05-24T01:41:34.201Z,7.77
2023-05-24T01:42:34.162Z,7.69
2023-05-24T01:43:34.169Z,7.76
2023-05-24T01:44:34.252Z,7.69
2023-05-24T01:45:34.133Z,7.69
2023-05-24T01:46:34.187Z,7.54
2023-05-24T01:47:34.135Z,7.50
2023-05-24T01:48:34.126Z,7.48
2023-05-24T01:49:34.826Z,7.40
2023-05-24T01:50:34.161Z,7.50
2023-05-24T01:51:34.126Z,7.51
2023-05-24T01:52:34.130Z,7.45
2023-05-24T01:53:35.835Z,7.48
2023-05-24T01:54:34.073Z,7.38
2023-05-24T01:55:34.087Z,7.43
2023-05-24T01:56:34.077Z,7.43
2023-05-24T01:57:34.045Z,7.39
2023-05-24T01:58:34.031Z,7.40
2023-05-24T01:59:34.033Z,7.33
2023-05-24T02:00:34.038Z,7.39
2023-05-24T02:01:34.087Z,7.40
2023-05-24T02:02:34.066Z,7.39
2023-05-24T02:03:34.032Z,7.32
2023-05-24T02:04:34.994Z,7.35
2023-05-24T02:05:34.910Z,7.38
2023-05-24T02:06:34.464Z,7.38
2023-05-24T02:07:34.868Z,7.51
2023-05-24T02:08:34.920Z,7.33
2023-05-24T02:09:33.948Z,7.33
2023-05-24T02:10:33.963Z,7.29
2023-05-24T02:11:33.934Z,7.23
2023-05-24T02:12:33.933Z,7.25
2023-05-24T02:13:33.986Z,7.13
2023-05-24T02:14:33.906Z,7.24
2023-05-24T02:15:33.936Z,7.14
2023-05-24T02:16:33.947Z,7.25
2023-05-24T02:17:33.959Z,7.05
2023-05-24T02:18:33.881Z,7.17
2023-05-24T02:19:33.993Z,7.11
2023-05-24T02:20:34.086Z,7.11
2023-05-24T02:21:34.853Z,7.03
2023-05-24T02:22:33.852Z,6.92
2023-05-24T02:23:33.874Z,6.99
2023-05-24T02:24:34.454Z,6.95
2023-05-24T02:25:34.399Z,6.97
2023-05-24T02:26:33.832Z,6.84
2023-05-24T02:27:33.827Z,6.81
2023-05-24T02:28:34.335Z,6.95
2023-05-24T02:29:33.814Z,6.79
2023-05-24T02:30:34.467Z,6.70
2023-05-24T02:31:33.829Z,6.74
2023-05-24T02:32:33.794Z,6.62
2023-05-24T02:33:33.868Z,6.57
2023-05-24T02:34:33.797Z,6.39
2023-05-24T02:35:33.756Z,6.45
2023-05-24T02:36:33.741Z,6.42
2023-05-24T02:37:33.741Z,6.39
2023-05-24T02:38:33.726Z,6.33
2023-05-24T02:39:33.831Z,6.22
2023-05-24T02:40:33.712Z,6.28
2023-05-24T02:41:34.446Z,6.19
2023-05-24T02:42:33.703Z,6.19
2023-05-24T02:43:34.338Z,6.28
2023-05-24T02:44:33.688Z,6.27
2023-05-24T02:45:33.668Z,6.16
2023-05-24T02:46:33.719Z,6.09
2023-05-24T02:47:33.719Z,6.22
2023-05-24T02:48:34.376Z,6.08
2023-05-24T02:49:33.652Z,6.20
2023-05-24T02:50:33.627Z,6.11
2023-05-24T02:51:34.371Z,6.12
2023-05-24T02:52:33.618Z,6.11
2023-05-24T02:53:33.634Z,6.04
2023-05-24T02:54:33.592Z,6.08
2023-05-24T02:55:33.589Z,6.07
2023-05-24T02:56:33.587Z,6.05
2023-05-24T02:57:33.603Z,6.09
2023-05-24T02:58:33.566Z,5.94
2023-05-24T02:59:33.584Z,5.93
2023-05-24T03:00:33.554Z,5.97
2023-05-24T03:01:33.592Z,5.82
2023-05-24T03:02:33.653Z,5.83
2023-05-24T03:03:34.436Z,5.84
2023-05-24T03:04:33.526Z,5.90
2023-05-24T03:05:33.551Z,5.80
2023-05-24T03:06:33.509Z,5.75
2023-05-24T03:07:33.512Z,5.82
2023-05-24T03:08:33.503Z,5.75
2023-05-24T03:09:33.507Z,5.84
2023-05-24T03:10:33.479Z,5.86
2023-05-24T03:11:33.484Z,5.75
2023-05-24T03:12:33.453Z,5.76
2023-05-24T03:13:34.584Z,5.80
2023-05-24T03:14:33.449Z,5.75
2023-05-24T03:15:33.450Z,5.83
2023-05-24T03:16:33.470Z,5.82
2023-05-24T03:17:33.467Z,5.75
2023-05-24T03:18:35.914Z,5.79
2023-05-24T03:19:33.488Z,5.72
2023-05-24T03:20:33.571Z,5.65
2023-05-24T03:21:33.402Z,5.65
2023-05-24T03:22:33.366Z,5.65
2023-05-24T03:23:33.361Z,5.69
2023-05-24T03:24:33.350Z,5.59
2023-05-24T03:25:33.385Z,5.69
2023-05-24T03:26:33.386Z,5.66
2023-05-24T03:27:33.331Z,5.56
2023-05-24T03:28:33.327Z,5.53
2023-05-24T03:29:33.325Z,5.59
2023-05-24T03:30:33.430Z,5.47
2023-05-24T03:31:33.373Z,5.53
2023-05-24T03:32:33.457Z,5.54
2023-05-24T03:33:33.302Z,5.51
2023-05-24T03:34:33.281Z,5.46
2023-05-24T03:35:33.266Z,5.38
2023-05-24T03:36:33.889Z,5.48
2023-05-24T03:37:33.260Z,5.53
2023-05-24T03:38:33.241Z,5.48
2023-05-24T03:39:34.076Z,5.66
2023-05-24T03:40:33.241Z,5.62
2023-05-24T03:41:33.237Z,5.61
2023-05-24T03:42:33.257Z,5.64
2023-05-24T03:43:33.233Z,5.68
2023-05-24T03:44:33.240Z,5.65
2023-05-24T03:45:39.029Z,5.54
2023-05-24T03:46:35.301Z,5.61
2023-05-24T03:47:33.222Z,5.72
2023-05-24T03:48:33.170Z,5.68
2023-05-24T03:49:34.174Z,5.80
2023-05-24T03:50:33.154Z,5.94
2023-05-24T03:51:33.148Z,6.08
2023-05-24T03:52:33.889Z,6.22
2023-05-24T03:53:33.131Z,6.24
2023-05-24T03:54:34.122Z,6.54
2023-05-24T03:55:33.129Z,6.60
2023-05-24T03:56:33.122Z,6.67
2023-05-24T03:57:33.109Z,6.82
2023-05-24T03:58:33.124Z,6.93
2023-05-24T03:59:33.087Z,7.05
2023-05-24T04:00:33.144Z,7.07
2023-05-24T04:01:34.426Z,7.05
2023-05-24T04:02:34.162Z,7.23
2023-05-24T04:03:33.116Z,7.33
2023-05-24T04:04:33.052Z,7.29
2023-05-24T04:05:33.075Z,7.43
2023-05-24T04:06:33.072Z,7.48
2023-05-24T04:07:33.018Z,7.51
2023-05-24T04:08:33.002Z,7.57
2023-05-24T04:09:32.992Z,7.85
2023-05-24T04:10:33.073Z,7.93
2023-05-24T04:11:32.986Z,7.85
2023-05-24T04:12:32.984Z,7.85
2023-05-24T04:13:32.969Z,7.82
2023-05-24T04:14:32.965Z,7.77
2023-05-24T04:15:32.959Z,7.87
2023-05-24T04:16:33.926Z,7.77
2023-05-24T04:17:33.040Z,7.75
2023-05-24T04:18:33.074Z,7.83
2023-05-24T04:19:32.922Z,7.93
2023-05-24T04:20:33.003Z,8.00
2023-05-24T04:21:32.918Z,8.28
2023-05-24T04:22:34.882Z,8.48
2023-05-24T04:23:39.469Z,8.69
2023-05-24T04:24:32.905Z,8.94
2023-05-24T04:25:32.887Z,9.16
2023-05-24T04:26:32.876Z,9.44
2023-05-24T04:27:32.855Z,9.66
2023-05-24T04:28:32.853Z,9.66
2023-05-24T04:29:32.844Z,9.58
2023-05-24T04:30:32.869Z,9.58
2023-05-24T04:31:33.547Z,9.68
2023-05-24T04:32:32.913Z,9.97
2023-05-24T04:33:32.836Z,10.07
2023-05-24T04:34:32.798Z,10.19
2023-05-24T04:35:32.816Z,10.57
2023-05-24T04:36:33.410Z,10.67
2023-05-24T04:37:32.788Z,10.42
2023-05-24T04:38:32.772Z,10.34
2023-05-24T04:39:33.525Z,10.37
2023-05-24T04:40:33.504Z,10.26
2023-05-24T04:41:32.758Z,9.86
2023-05-24T04:42:34.402Z,9.39
2023-05-24T04:43:32.726Z,9.14
2023-05-24T04:44:32.735Z,8.89
2023-05-24T04:45:32.749Z,8.69
2023-05-24T04:46:32.761Z,8.48
2023-05-24T04:47:32.774Z,8.53
2023-05-24T04:48:32.695Z,8.61
2023-05-24T04:49:32.689Z,8.63
2023-05-24T04:50:32.712Z,8.64
2023-05-24T04:51:32.698Z,8.64
2023-05-24T04:52:32.670Z,8.61
2023-05-24T04:53:32.773Z,8.46
2023-05-24T04:54:33.482Z,8.46
2023-05-24T04:55:32.712Z,8.52
2023-05-24T04:56:32.770Z,8.53
2023-05-24T04:57:32.659Z,8.55
2023-05-24T04:58:32.636Z,8.60
2023-05-24T04:59:32.631Z,8.71
2023-05-24T05:00:32.594Z,8.64
2023-05-24T05:01:32.629Z,8.67
2023-05-24T05:02:34.441Z,8.70
2023-05-24T05:03:33.534Z,8.67
2023-05-24T05:04:32.825Z,8.73
2023-05-24T05:05:32.585Z,8.76
2023-05-24T05:06:32.601Z,8.84
2023-05-24T05:07:33.554Z,8.82
2023-05-24T05:08:32.630Z,8.85
2023-05-24T05:09:32.552Z,9.00
2023-05-24T05:10:32.572Z,8.89
2023-05-24T05:11:32.579Z,9.10
2023-05-24T05:12:32.510Z,9.18
2023-05-24T05:13:32.527Z,9.22
2023-05-24T05:14:32.522Z,9.14
2023-05-24T05:15:32.538Z,9.14
2023-05-24T05:16:32.530Z,9.06
2023-05-24T05:17:32.514Z,9.22
2023-05-24T05:18:32.452Z,9.29
2023-05-24T05:19:32.983Z,9.21
2023-05-24T05:20:32.483Z,9.37
2023-05-24T05:21:32.453Z,9.40
2023-05-24T05:22:32.992Z,9.58
2023-05-24T05:23:32.449Z,9.66
2023-05-24T05:24:32.413Z,9.54
2023-05-24T05:25:32.432Z,9.48
2023-05-24T05:26:32.507Z,9.58
2023-05-24T05:27:33.973Z,9.44
2023-05-24T05:28:33.389Z,9.37
2023-05-24T05:29:32.392Z,9.29
2023-05-24T05:30:32.391Z,9.40
2023-05-24T05:31:32.462Z,9.44
2023-05-24T05:32:33.110Z,9.48
2023-05-24T05:33:32.422Z,9.66
2023-05-24T05:34:33.928Z,9.79
2023-05-24T05:35:32.343Z,10.01
2023-05-24T05:36:32.366Z,10.35
2023-05-24T05:37:33.918Z,10.54
2023-05-24T05:38:32.305Z,10.59
2023-05-24T05:39:34.004Z,10.75
2023-05-24T05:40:32.292Z,10.99
2023-05-24T05:41:32.283Z,11.15
2023-05-24T05:42:32.350Z,11.07
2023-05-24T05:43:32.317Z,10.99
2023-05-24T05:44:32.252Z,10.99
2023-05-24T05:45:32.268Z,10.75
2023-05-24T05:46:32.338Z,10.72
2023-05-24T05:47:32.237Z,10.69
2023-05-24T05:48:32.248Z,10.72
2023-05-24T05:49:32.215Z,10.82
2023-05-24T05:50:32.232Z,10.93
2023-05-24T05:51:32.196Z,11.02
2023-05-24T05:52:32.209Z,11.00
2023-05-24T05:53:34.061Z,10.90
2023-05-24T05:54:32.185Z,10.81
2023-05-24T05:55:33.254Z,10.74
2023-05-24T05:56:32.266Z,10.75
2023-05-24T05:57:33.014Z,10.72
2023-05-24T05:58:32.185Z,10.54
2023-05-24T05:59:32.145Z,10.42
2023-05-24T06:00:32.154Z,10.40
2023-05-24T06:01:34.036Z,10.25
2023-05-24T06:02:32.213Z,10.25
2023-05-24T06:03:33.209Z,10.20
2023-05-24T06:04:32.142Z,10.10
2023-05-24T06:05:32.092Z,10.05
2023-05-24T06:06:32.093Z,10.05
2023-05-24T06:07:32.117Z,10.04
2023-05-24T06:08:32.091Z,10.05
2023-05-24T06:09:32.061Z,9.94
2023-05-24T06:10:32.070Z,9.95
2023-05-24T06:11:32.037Z,10.07
2023-05-24T06:12:32.032Z,10.23
2023-05-24T06:13:32.034Z,10.33
2023-05-24T06:14:33.006Z,10.56
2023-05-24T06:15:33.051Z,10.72
2023-05-24T06:16:32.081Z,10.74
2023-05-24T06:17:33.882Z,10.74
2023-05-24T06:18:32.217Z,10.81
2023-05-24T06:19:35.518Z,10.90
2023-05-24T06:21:05.448Z,10.90
2023-05-24T06:21:32.952Z,10.96
2023-05-24T06:22:31.948Z,10.99
2023-05-24T06:23:31.949Z,11.04
2023-05-24T06:24:31.940Z,10.82
2023-05-24T06:25:31.939Z,10.72
2023-05-24T06:27:38.658Z,10.69
2023-05-24T06:28:38.642Z,10.75
2023-05-24T06:29:39.319Z,10.93
2023-05-24T06:30:40.708Z,11.08
2023-05-24T06:31:40.332Z,11.17
2023-05-24T06:32:40.378Z,11.26
2023-05-24T06:33:42.677Z,11.50
2023-05-24T06:34:42.273Z,11.51
2023-05-24T06:35:39.687Z,11.65
2023-05-24T06:36:39.925Z,11.80
2023-05-24T06:37:39.646Z,12.06
2023-05-24T06:38:40.295Z,12.12
2023-05-24T06:40:46.512Z,12.17
2023-05-24T06:41:46.519Z,12.02
2023-05-24T06:42:46.512Z,11.62
2023-05-24T06:43:48.350Z,11.36
2023-05-24T06:44:47.587Z,11.08
2023-05-24T06:45:47.587Z,11.00
2023-05-24T06:46:47.589Z,11.00
2023-05-24T06:47:47.656Z,11.04
2023-05-24T06:48:47.697Z,10.93
2023-05-24T06:50:56.852Z,10.48
2023-05-24T06:52:01.119Z,10.16
2023-05-24T06:52:56.837Z,10.20
2023-05-24T06:53:56.817Z,10.30
2023-05-24T06:54:56.797Z,10.30
2023-05-24T06:55:57.910Z,10.51
2023-05-24T06:56:57.916Z,10.48
2023-05-24T06:57:57.873Z,10.57
2023-05-24T06:59:00.765Z,10.56
2023-05-24T06:59:57.871Z,10.54
2023-05-24T07:00:59.656Z,10.37
2023-05-24T07:01:59.943Z,10.34
2023-05-24T07:02:57.922Z,10.15
2023-05-24T07:03:58.825Z,10.31
2023-05-24T07:04:57.901Z,10.37
2023-05-24T07:05:57.815Z,10.44
2023-05-24T07:06:57.827Z,10.51
2023-05-24T07:07:57.832Z,10.68
2023-05-24T07:08:57.792Z,10.69
2023-05-24T07:09:57.784Z,10.64
2023-05-24T07:10:58.727Z,10.54
2023-05-24T07:11:59.619Z,10.61
2023-05-24T07:12:57.761Z,10.72
2023-05-24T07:15:06.022Z,10.63
2023-05-24T07:16:06.503Z,10.54
2023-05-24T07:17:05.824Z,10.60
2023-05-24T07:18:05.786Z,10.57
2023-05-24T07:19:05.724Z,10.57
2023-05-24T07:20:05.766Z,10.46
2023-05-24T07:21:06.041Z,10.53
2023-05-24T07:22:07.522Z,10.60
2023-05-24T07:23:05.779Z,10.64
2023-05-24T07:24:07.594Z,10.68
2023-05-24T07:25:05.691Z,10.87
2023-05-24T07:26:05.668Z,10.81
2023-05-24T07:27:05.651Z,10.84
2023-05-24T07:28:07.613Z,10.78
2023-05-24T07:29:08.528Z,10.86
2023-05-24T07:30:06.625Z,10.75
2023-05-24T07:31:05.809Z,10.72
2023-05-24T07:32:05.684Z,10.81
2023-05-24T07:33:05.657Z,11.07
2023-05-24T07:35:13.676Z,11.15
2023-05-24T07:36:13.674Z,11.22
2023-05-24T07:37:13.626Z,11.23
2023-05-24T07:38:14.723Z,11.36
2023-05-24T07:39:15.297Z,11.52
2023-05-24T07:40:14.690Z,11.63
2023-05-24T07:41:14.703Z,11.95
2023-05-24T07:42:16.407Z,12.39
2023-05-24T07:43:14.667Z,12.62
2023-05-24T07:44:16.307Z,12.47
2023-05-24T07:45:14.692Z,12.70
2023-05-24T07:46:14.775Z,12.75
2023-05-24T07:47:14.673Z,12.87
2023-05-24T07:48:14.705Z,12.93
2023-05-24T07:49:17.386Z,13.13
2023-05-24T07:50:14.626Z,13.44
2023-05-24T07:51:15.616Z,13.47
2023-05-24T07:52:18.382Z,13.35
2023-05-24T07:53:14.612Z,13.33
2023-05-24T07:54:14.588Z,13.30
2023-05-24T07:55:14.588Z,13.50
2023-05-24T07:56:14.569Z,13.50
2023-05-24T07:57:14.566Z,13.27
2023-05-24T07:58:14.573Z,12.98
2023-05-24T07:59:14.560Z,12.37
2023-05-24T08:00:15.089Z,12.13
2023-05-24T08:01:14.561Z,12.27
2023-05-24T08:02:14.533Z,12.28
2023-05-24T08:03:14.756Z,12.60
2023-05-24T08:04:14.525Z,12.73
2023-05-24T08:05:14.511Z,13.03
2023-05-24T08:06:14.477Z,13.09
2023-05-24T08:07:15.521Z,13.13
2023-05-24T08:08:14.498Z,13.31
2023-05-24T08:09:14.488Z,13.25
2023-05-24T08:10:14.509Z,13.49
2023-05-24T08:11:14.465Z,13.59
2023-05-24T08:12:16.947Z,13.42
2023-05-24T08:13:15.443Z,13.57
2023-05-24T08:14:14.436Z,13.60
2023-05-24T08:15:14.439Z,13.63
2023-05-24T08:16:14.432Z,13.85
2023-05-24T08:17:17.552Z,14.12
2023-05-24T08:18:15.480Z,13.75
2023-05-24T08:19:14.385Z,13.46
2023-05-24T08:20:14.494Z,13.35
2023-05-24T08:21:14.842Z,13.70
2023-05-24T08:23:20.657Z,14.17
2023-05-24T08:24:20.648Z,14.29
2023-05-24T08:25:21.737Z,14.28
2023-05-24T08:26:21.719Z,14.07
2023-05-24T08:27:21.710Z,13.54
2023-05-24T08:28:21.750Z,13.53
2023-05-24T08:29:22.594Z,13.27
2023-05-24T08:30:21.690Z,13.11
2023-05-24T08:31:21.742Z,12.55
2023-05-24T08:32:21.744Z,12.35
2023-05-24T08:33:21.684Z,12.54
2023-05-24T08:34:21.692Z,12.67
2023-05-24T08:35:22.276Z,12.97
2023-05-24T08:36:21.665Z,13.13
2023-05-24T08:37:21.646Z,12.90
2023-05-24T08:38:21.636Z,12.85
2023-05-24T08:39:22.587Z,12.83
2023-05-24T08:40:23.560Z,13.09
2023-05-24T08:41:22.521Z,13.16
2023-05-24T08:42:22.088Z,13.30
2023-05-24T08:43:21.592Z,13.59
2023-05-24T08:44:21.573Z,13.71
2023-05-24T08:45:21.557Z,14.05
2023-05-24T08:46:21.736Z,14.20
2023-05-24T08:47:22.538Z,14.40
2023-05-24T08:48:21.675Z,14.41
2023-05-24T08:49:21.542Z,14.51
2023-05-24T08:50:21.538Z,14.51
2023-05-24T08:51:21.542Z,14.33
2023-05-24T08:52:22.465Z,14.10
2023-05-24T08:53:23.119Z,13.89
2023-05-24T08:54:22.009Z,13.90
2023-05-24T08:55:21.508Z,14.14
2023-05-24T08:56:21.508Z,14.29
2023-05-24T08:57:23.093Z,13.97
2023-05-24T08:58:22.477Z,13.97
2023-05-24T08:59:24.085Z,13.99
2023-05-24T09:00:21.479Z,13.68
2023-05-24T09:01:21.553Z,13.56
2023-05-24T09:02:21.444Z,13.56
2023-05-24T09:03:23.087Z,13.30
2023-05-24T09:04:23.194Z,12.93
2023-05-24T09:05:21.408Z,12.68
2023-05-24T09:06:21.421Z,12.53
2023-05-24T09:07:21.422Z,12.40
2023-05-24T09:08:21.426Z,12.24
2023-05-24T09:09:22.033Z,12.32
2023-05-24T09:10:24.023Z,12.40
2023-05-24T09:11:23.096Z,12.18
2023-05-24T09:12:35.728Z,12.27
2023-05-24T09:13:23.361Z,12.13
2023-05-24T09:14:21.975Z,12.03
2023-05-24T09:15:21.347Z,11.94
2023-05-24T09:16:21.361Z,11.90
2023-05-24T09:17:21.336Z,11.99
2023-05-24T09:18:21.443Z,11.97
2023-05-24T09:19:21.358Z,11.86
2023-05-24T09:20:21.317Z,11.70
2023-05-24T09:21:22.100Z,11.86
2023-05-24T09:22:21.371Z,11.95
2023-05-24T09:23:21.291Z,12.03
2023-05-24T09:24:21.300Z,12.13
2023-05-24T09:25:21.262Z,12.28
2023-05-24T09:26:23.021Z,12.73
2023-05-24T09:27:21.273Z,12.94
2023-05-24T09:28:22.108Z,13.18
2023-05-24T09:29:22.016Z,13.46
2023-05-24T09:30:21.358Z,13.75
2023-05-24T09:31:21.273Z,13.87
2023-05-24T09:32:22.058Z,14.20
2023-05-24T09:33:21.206Z,14.41
2023-05-24T09:34:21.207Z,14.53
2023-05-24T09:35:23.536Z,14.58
2023-05-24T09:36:22.072Z,14.69
2023-05-24T09:37:27.388Z,15.10
2023-05-24T09:38:23.187Z,15.15
2023-05-24T09:39:23.055Z,15.17
2023-05-24T09:40:22.052Z,14.96
2023-05-24T09:41:22.115Z,15.02
2023-05-24T09:42:22.178Z,15.07
2023-05-24T09:43:21.365Z,15.15
2023-05-24T09:44:22.121Z,15.17
2023-05-24T09:45:21.109Z,15.24
2023-05-24T09:46:21.137Z,15.29
2023-05-24T09:47:22.231Z,15.17
2023-05-24T09:48:22.049Z,15.29
2023-05-24T09:49:22.040Z,15.17
2023-05-24T09:51:30.234Z,15.25
2023-05-24T09:52:31.735Z,15.31
2023-05-24T09:53:30.147Z,15.54
2023-05-24T09:54:35.160Z,15.72
2023-05-24T09:55:30.118Z,15.88
2023-05-24T09:56:30.832Z,15.86
2023-05-24T09:57:30.174Z,15.72
2023-05-24T09:58:35.862Z,15.49
2023-05-24T09:59:34.356Z,15.64
2023-05-24T10:00:32.208Z,15.52
2023-05-24T10:01:34.892Z,15.22
2023-05-24T10:02:38.483Z,14.62
2023-05-24T10:03:33.220Z,14.25
2023-05-24T10:04:31.868Z,14.15
2023-05-24T10:05:31.957Z,14.11
2023-05-24T10:06:32.987Z,14.29
2023-05-24T10:07:31.116Z,14.53
2023-05-24T10:08:32.000Z,14.72
2023-05-24T10:09:31.139Z,14.81
2023-05-24T10:10:31.134Z,14.91
2023-05-24T10:11:31.104Z,14.81
2023-05-24T10:12:31.075Z,14.65
2023-05-24T10:13:34.819Z,14.50
2023-05-24T10:14:36.838Z,14.44
2023-05-24T21:20:42.390Z,8.31
2023-05-24T21:21:42.295Z,8.36
2023-05-24T21:22:42.289Z,8.33
2023-05-24T21:23:42.359Z,8.41
2023-05-24T21:24:42.298Z,8.33
2023-05-24T21:25:42.434Z,8.37
2023-05-24T21:26:43.480Z,8.36
2023-05-24T21:27:43.352Z,8.38
2023-05-24T21:28:43.341Z,8.36
2023-05-24T21:29:44.313Z,8.45
2023-05-24T21:30:43.376Z,8.34
2023-05-24T21:31:43.429Z,8.30
2023-05-24T21:32:43.346Z,8.33
2023-05-24T21:33:43.311Z,8.20
2023-05-24T21:34:43.300Z,8.23
2023-05-24T21:35:43.566Z,8.19
2023-05-24T21:36:43.282Z,8.16
2023-05-24T21:37:43.264Z,8.20
2023-05-24T21:38:43.268Z,8.10
2023-05-24T21:39:43.265Z,8.12
2023-05-24T21:40:43.269Z,8.15
2023-05-24T21:41:43.265Z,8.08
2023-05-24T21:42:43.226Z,8.03
2023-05-24T21:43:43.250Z,8.06
2023-05-24T21:44:43.247Z,7.94
2023-05-24T21:45:43.514Z,8.05
2023-05-24T21:46:43.278Z,8.01
2023-05-24T21:47:43.209Z,7.95
2023-05-24T21:48:43.184Z,8.00
2023-05-24T21:49:43.178Z,7.95
2023-05-24T21:50:43.181Z,8.00
2023-05-24T21:51:43.166Z,7.97
2023-05-24T21:52:43.162Z,7.98
2023-05-24T21:53:43.140Z,8.06
2023-05-24T21:54:43.142Z,7.95
2023-05-24T21:55:43.258Z,8.05
2023-05-24T21:56:43.148Z,8.00
2023-05-24T21:57:43.166Z,7.97
2023-05-24T21:58:43.902Z,7.98
2023-05-24T21:59:43.893Z,8.00
2023-05-24T22:00:43.081Z,8.00
2023-05-24T22:01:43.104Z,8.05
2023-05-24T22:02:43.170Z,7.97
2023-05-24T22:03:43.154Z,7.97
2023-05-24T22:04:43.069Z,8.01
2023-05-24T22:05:43.179Z,7.93
2023-05-24T22:06:43.049Z,7.91
2023-05-24T22:07:43.039Z,7.94
2023-05-24T22:08:43.048Z,7.98
2023-05-24T22:09:43.011Z,7.88
2023-05-24T22:10:43.004Z,7.91
2023-05-24T22:11:43.035Z,7.93
2023-05-24T22:12:43.014Z,7.76
2023-05-24T22:13:43.019Z,7.82
2023-05-24T22:14:42.991Z,7.82
2023-05-24T22:15:43.162Z,7.85
2023-05-24T22:16:43.050Z,7.67
2023-05-24T22:17:43.919Z,7.79
2023-05-24T22:18:42.995Z,7.72
2023-05-24T22:19:42.976Z,7.61
2023-05-24T22:20:42.978Z,7.73
2023-05-24T22:22:49.709Z,7.76
2023-05-24T22:23:50.580Z,7.66
2023-05-24T22:24:49.707Z,7.56
2023-05-24T22:25:49.706Z,7.57
2023-05-24T22:26:50.775Z,7.56
2023-05-24T22:27:50.797Z,7.53
2023-05-24T22:28:50.795Z,7.45
2023-05-24T22:29:50.774Z,7.47
2023-05-24T22:30:50.781Z,7.48
2023-05-24T22:31:50.827Z,7.45
2023-05-24T22:32:50.754Z,7.45
2023-05-24T22:33:50.731Z,7.42
2023-05-24T22:34:50.726Z,7.48
2023-05-24T22:35:50.711Z,7.42
2023-05-24T22:36:50.719Z,7.36
2023-05-24T22:37:50.696Z,7.32
2023-05-24T22:38:50.696Z,7.45
2023-05-24T22:39:50.689Z,7.35
2023-05-24T22:40:50.687Z,7.33
2023-05-24T22:41:50.698Z,7.32
2023-05-24T22:42:50.654Z,7.36
2023-05-24T22:43:50.665Z,7.36
2023-05-24T22:44:50.660Z,7.39
2023-05-24T22:45:50.698Z,7.32
2023-05-24T22:46:50.704Z,7.42
2023-05-24T22:47:50.650Z,7.47
2023-05-24T22:48:50.619Z,7.48
2023-05-24T22:49:50.608Z,7.35
2023-05-24T22:50:50.626Z,7.32
2023-05-24T22:51:50.664Z,7.32
2023-05-24T22:52:50.587Z,7.39
2023-05-24T22:53:50.590Z,7.35
2023-05-24T22:54:50.579Z,7.25
2023-05-24T22:55:50.568Z,7.29
2023-05-24T22:56:50.572Z,7.28
2023-05-24T22:57:50.547Z,7.29
2023-05-24T22:58:50.526Z,7.32
2023-05-24T22:59:50.533Z,7.23
2023-05-24T23:00:50.506Z,7.29
2023-05-24T23:01:50.638Z,7.15
2023-05-24T23:02:50.579Z,7.23
2023-05-24T23:03:50.567Z,7.20
2023-05-24T23:04:50.490Z,7.18
2023-05-24T23:05:50.504Z,7.17
2023-05-24T23:06:50.465Z,7.11
2023-05-24T23:07:50.476Z,7.02
2023-05-24T23:08:50.460Z,7.15
2023-05-24T23:09:51.181Z,7.02
2023-05-24T23:10:50.470Z,7.05
2023-05-24T23:11:50.452Z,7.05
2023-05-24T23:12:50.429Z,7.05
2023-05-24T23:13:50.422Z,7.06
2023-05-24T23:14:50.421Z,7.14
2023-05-24T23:15:50.422Z,7.00
2023-05-24T23:16:50.430Z,7.06
2023-05-24T23:17:50.442Z,7.02
2023-05-24T23:18:50.378Z,7.11
2023-05-24T23:19:50.622Z,7.05
2023-05-24T23:20:50.401Z,7.10
2023-05-24T23:21:50.372Z,7.06
2023-05-24T23:22:50.355Z,7.00
2023-05-24T23:23:50.352Z,7.10
2023-05-24T23:24:50.334Z,7.00
2023-05-24T23:25:50.326Z,7.11
2023-05-24T23:26:50.309Z,7.02
2023-05-24T23:27:50.427Z,7.03
2023-05-24T23:28:50.348Z,7.02
2023-05-24T23:29:50.292Z,6.99
2023-05-24T23:30:50.352Z,7.02
2023-05-24T23:31:50.481Z,6.93
2023-05-24T23:32:50.321Z,6.84
2023-05-24T23:33:50.279Z,6.96
2023-05-24T23:34:50.266Z,6.99
2023-05-24T23:35:50.240Z,6.96
2023-05-24T23:36:51.114Z,6.96
2023-05-24T23:37:50.265Z,6.87
2023-05-24T23:38:50.225Z,6.81
2023-05-24T23:39:50.203Z,6.92
2023-05-24T23:40:50.197Z,6.82
2023-05-24T23:41:50.199Z,6.82
2023-05-24T23:42:50.202Z,6.69
2023-05-24T23:43:50.198Z,6.84
2023-05-24T23:44:50.688Z,6.75
2023-05-24T23:45:50.163Z,6.70
2023-05-24T23:46:50.195Z,6.77
2023-05-24T23:47:50.167Z,6.67
2023-05-24T23:48:50.162Z,6.79
2023-05-24T23:49:51.090Z,6.69
2023-05-24T23:50:53.826Z,6.70
2023-05-24T23:51:51.127Z,6.75
2023-05-24T23:52:50.219Z,6.67
2023-05-24T23:53:50.116Z,6.63
2023-05-24T23:54:50.091Z,6.59
2023-05-24T23:55:50.093Z,6.62
2023-05-24T23:56:50.092Z,6.63
2023-05-24T23:57:50.094Z,6.77
2023-05-24T23:58:50.077Z,6.67
2023-05-24T23:59:50.047Z,6.57
